sensor_id;sensor_type;location;lat;lon;timestamp;P1;durP1;ratioP1;P2;durP2;ratioP2
65755;SDS011;69208;47.502;18.940;2023-07-13T00:00:56;6.40;;;3.50;;
65755;SDS011;69208;47.502;18.940;2023-07-13T00:01:59;8.55;;;3.53;;
65755;SDS011;69208;47.502;18.940;2023-07-13T00:03:03;5.72;;;3.65;;
65755;SDS011;69208;47.502;18.940;2023-07-13T00:04:07;6.93;;;3.53;;
65755;SDS011;69208;47.502;18.940;2023-07-13T00:05:10;7.03;;;3.40;;
65755;SDS011;69208;47.502;18.940;2023-07-13T00:06:13;4.50;;;3.08;;
65755;SDS011;69208;47.502;18.940;2023-07-13T00:07:16;8.38;;;3.20;;
65755;SDS011;69208;47.502;18.940;2023-07-13T00:08:22;5.40;;;3.10;;
65755;SDS011;69208;47.502;18.940;2023-07-13T00:09:25;5.95;;;2.97;;
65755;SDS011;69208;47.502;18.940;2023-07-13T00:10:28;9.80;;;3.00;;
65755;SDS011;69208;47.502;18.940;2023-07-13T00:11:34;4.45;;;2.62;;
65755;SDS011;69208;47.502;18.940;2023-07-13T00:12:37;3.97;;;2.58;;
65755;SDS011;69208;47.502;18.940;2023-07-13T00:13:44;4.82;;;2.58;;
65755;SDS011;69208;47.502;18.940;2023-07-13T00:14:47;7.05;;;3.00;;
65755;SDS011;69208;47.502;18.940;2023-07-13T00:15:51;4.37;;;2.20;;
65755;SDS011;69208;47.502;18.940;2023-07-13T00:16:56;10.07;;;2.60;;
65755;SDS011;69208;47.502;18.940;2023-07-13T00:17:59;6.30;;;2.67;;
65755;SDS011;69208;47.502;18.940;2023-07-13T00:19:03;5.57;;;2.50;;
65755;SDS011;69208;47.502;18.940;2023-07-13T00:20:08;4.28;;;2.50;;
65755;SDS011;69208;47.502;18.940;2023-07-13T00:21:11;4.15;;;2.67;;
65755;SDS011;69208;47.502;18.940;2023-07-13T00:22:14;3.85;;;2.30;;
65755;SDS011;69208;47.502;18.940;2023-07-13T00:23:18;4.78;;;2.55;;
65755;SDS011;69208;47.502;18.940;2023-07-13T00:24:21;3.95;;;2.30;;
65755;SDS011;69208;47.502;18.940;2023-07-13T00:25:26;5.70;;;2.65;;
65755;SDS011;69208;47.502;18.940;2023-07-13T00:26:30;3.65;;;2.22;;
65755;SDS011;69208;47.502;18.940;2023-07-13T00:27:35;3.47;;;2.12;;
65755;SDS011;69208;47.502;18.940;2023-07-13T00:28:38;4.22;;;2.40;;
65755;SDS011;69208;47.502;18.940;2023-07-13T00:29:42;6.03;;;2.35;;
65755;SDS011;69208;47.502;18.940;2023-07-13T00:30:44;7.72;;;2.40;;
65755;SDS011;69208;47.502;18.940;2023-07-13T00:31:49;8.52;;;2.45;;
65755;SDS011;69208;47.502;18.940;2023-07-13T00:32:52;3.50;;;2.05;;
65755;SDS011;69208;47.502;18.940;2023-07-13T00:34:13;3.97;;;2.03;;
65755;SDS011;69208;47.502;18.940;2023-07-13T00:35:16;7.95;;;2.03;;
65755;SDS011;69208;47.502;18.940;2023-07-13T00:36:20;3.28;;;1.80;;
65755;SDS011;69208;47.502;18.940;2023-07-13T00:37:22;3.78;;;1.65;;
65755;SDS011;69208;47.502;18.940;2023-07-13T00:38:25;3.08;;;1.65;;
65755;SDS011;69208;47.502;18.940;2023-07-13T00:39:28;2.12;;;1.60;;
65755;SDS011;69208;47.502;18.940;2023-07-13T00:40:31;4.32;;;1.60;;
65755;SDS011;69208;47.502;18.940;2023-07-13T00:41:34;1.75;;;1.40;;
65755;SDS011;69208;47.502;18.940;2023-07-13T00:42:39;1.83;;;1.55;;
65755;SDS011;69208;47.502;18.940;2023-07-13T00:43:43;2.67;;;1.37;;
65755;SDS011;69208;47.502;18.940;2023-07-13T00:46:10;1.85;;;1.50;;
65755;SDS011;69208;47.502;18.940;2023-07-13T00:47:16;1.33;;;1.20;;
65755;SDS011;69208;47.502;18.940;2023-07-13T00:48:26;2.55;;;1.30;;
65755;SDS011;69208;47.502;18.940;2023-07-13T00:49:33;3.25;;;1.60;;
65755;SDS011;69208;47.502;18.940;2023-07-13T00:50:38;1.42;;;1.30;;
65755;SDS011;69208;47.502;18.940;2023-07-13T00:51:44;4.22;;;1.30;;
65755;SDS011;69208;47.502;18.940;2023-07-13T00:52:52;6.45;;;1.35;;
65755;SDS011;69208;47.502;18.940;2023-07-13T00:53:58;1.92;;;1.35;;
65755;SDS011;69208;47.502;18.940;2023-07-13T00:55:06;3.17;;;1.30;;
65755;SDS011;69208;47.502;18.940;2023-07-13T00:56:11;2.30;;;1.30;;
65755;SDS011;69208;47.502;18.940;2023-07-13T00:57:16;5.70;;;1.20;;
65755;SDS011;69208;47.502;18.940;2023-07-13T00:58:22;2.00;;;1.30;;
65755;SDS011;69208;47.502;18.940;2023-07-13T00:59:26;1.10;;;1.10;;
65755;SDS011;69208;47.502;18.940;2023-07-13T01:00:30;1.10;;;1.10;;
65755;SDS011;69208;47.502;18.940;2023-07-13T01:01:33;6.55;;;1.33;;
65755;SDS011;69208;47.502;18.940;2023-07-13T01:02:37;1.40;;;1.23;;
65755;SDS011;69208;47.502;18.940;2023-07-13T01:03:41;1.10;;;1.05;;
65755;SDS011;69208;47.502;18.940;2023-07-13T01:04:44;4.78;;;1.50;;
65755;SDS011;69208;47.502;18.940;2023-07-13T01:05:48;5.15;;;1.30;;
65755;SDS011;69208;47.502;18.940;2023-07-13T01:06:52;2.25;;;1.20;;
65755;SDS011;69208;47.502;18.940;2023-07-13T01:07:55;1.25;;;1.02;;
65755;SDS011;69208;47.502;18.940;2023-07-13T01:08:59;3.97;;;1.10;;
65755;SDS011;69208;47.502;18.940;2023-07-13T01:10:02;1.37;;;1.10;;
65755;SDS011;69208;47.502;18.940;2023-07-13T01:11:07;3.60;;;1.10;;
65755;SDS011;69208;47.502;18.940;2023-07-13T01:12:13;1.37;;;1.10;;
65755;SDS011;69208;47.502;18.940;2023-07-13T01:13:16;4.37;;;1.40;;
65755;SDS011;69208;47.502;18.940;2023-07-13T01:14:19;2.15;;;1.10;;
65755;SDS011;69208;47.502;18.940;2023-07-13T01:15:34;4.75;;;1.30;;
65755;SDS011;69208;47.502;18.940;2023-07-13T01:16:41;4.62;;;1.35;;
65755;SDS011;69208;47.502;18.940;2023-07-13T01:17:45;3.17;;;1.40;;
65755;SDS011;69208;47.502;18.940;2023-07-13T01:18:48;4.18;;;1.33;;
65755;SDS011;69208;47.502;18.940;2023-07-13T01:19:51;2.75;;;1.30;;
65755;SDS011;69208;47.502;18.940;2023-07-13T01:22:05;2.95;;;1.65;;
65755;SDS011;69208;47.502;18.940;2023-07-13T01:23:14;2.53;;;1.40;;
65755;SDS011;69208;47.502;18.940;2023-07-13T01:24:17;4.37;;;1.40;;
65755;SDS011;69208;47.502;18.940;2023-07-13T01:25:20;2.15;;;1.30;;
65755;SDS011;69208;47.502;18.940;2023-07-13T01:26:23;2.47;;;1.37;;
65755;SDS011;69208;47.502;18.940;2023-07-13T01:27:26;3.90;;;1.30;;
65755;SDS011;69208;47.502;18.940;2023-07-13T01:28:30;2.40;;;1.20;;
65755;SDS011;69208;47.502;18.940;2023-07-13T01:29:34;1.30;;;1.20;;
65755;SDS011;69208;47.502;18.940;2023-07-13T01:30:45;2.40;;;1.40;;
65755;SDS011;69208;47.502;18.940;2023-07-13T01:31:48;2.90;;;1.23;;
65755;SDS011;69208;47.502;18.940;2023-07-13T01:32:51;4.03;;;1.50;;
65755;SDS011;69208;47.502;18.940;2023-07-13T01:33:54;3.40;;;1.60;;
65755;SDS011;69208;47.502;18.940;2023-07-13T01:35:00;5.43;;;1.30;;
65755;SDS011;69208;47.502;18.940;2023-07-13T01:36:03;3.25;;;1.48;;
65755;SDS011;69208;47.502;18.940;2023-07-13T01:37:06;2.35;;;1.30;;
65755;SDS011;69208;47.502;18.940;2023-07-13T01:38:10;3.50;;;1.35;;
65755;SDS011;69208;47.502;18.940;2023-07-13T01:39:14;3.33;;;1.50;;
65755;SDS011;69208;47.502;18.940;2023-07-13T01:40:18;3.62;;;1.30;;
65755;SDS011;69208;47.502;18.940;2023-07-13T01:41:21;1.40;;;1.30;;
65755;SDS011;69208;47.502;18.940;2023-07-13T01:42:24;10.10;;;1.42;;
65755;SDS011;69208;47.502;18.940;2023-07-13T01:43:27;2.67;;;1.40;;
65755;SDS011;69208;47.502;18.940;2023-07-13T01:44:30;1.65;;;1.48;;
65755;SDS011;69208;47.502;18.940;2023-07-13T01:45:32;1.55;;;1.30;;
65755;SDS011;69208;47.502;18.940;2023-07-13T01:46:36;2.22;;;1.67;;
65755;SDS011;69208;47.502;18.940;2023-07-13T01:47:39;2.65;;;1.27;;
65755;SDS011;69208;47.502;18.940;2023-07-13T01:48:42;2.33;;;1.40;;
65755;SDS011;69208;47.502;18.940;2023-07-13T01:49:45;2.15;;;1.37;;
65755;SDS011;69208;47.502;18.940;2023-07-13T01:50:49;4.00;;;1.50;;
65755;SDS011;69208;47.502;18.940;2023-07-13T01:51:52;2.05;;;1.30;;
65755;SDS011;69208;47.502;18.940;2023-07-13T01:52:55;3.25;;;1.20;;
65755;SDS011;69208;47.502;18.940;2023-07-13T01:53:58;2.85;;;1.40;;
65755;SDS011;69208;47.502;18.940;2023-07-13T01:55:01;3.28;;;1.50;;
65755;SDS011;69208;47.502;18.940;2023-07-13T01:56:04;3.28;;;1.60;;
65755;SDS011;69208;47.502;18.940;2023-07-13T01:57:07;4.45;;;1.58;;
65755;SDS011;69208;47.502;18.940;2023-07-13T01:58:10;2.97;;;1.62;;
65755;SDS011;69208;47.502;18.940;2023-07-13T01:59:13;2.37;;;1.52;;
65755;SDS011;69208;47.502;18.940;2023-07-13T02:00:17;3.60;;;1.60;;
65755;SDS011;69208;47.502;18.940;2023-07-13T02:01:20;4.28;;;1.50;;
65755;SDS011;69208;47.502;18.940;2023-07-13T02:02:23;10.30;;;1.40;;
65755;SDS011;69208;47.502;18.940;2023-07-13T02:03:26;2.90;;;1.50;;
65755;SDS011;69208;47.502;18.940;2023-07-13T02:04:29;2.85;;;1.60;;
65755;SDS011;69208;47.502;18.940;2023-07-13T02:05:32;3.08;;;1.67;;
65755;SDS011;69208;47.502;18.940;2023-07-13T02:06:35;2.15;;;1.42;;
65755;SDS011;69208;47.502;18.940;2023-07-13T02:07:38;4.75;;;1.35;;
65755;SDS011;69208;47.502;18.940;2023-07-13T02:08:41;6.18;;;1.75;;
65755;SDS011;69208;47.502;18.940;2023-07-13T02:09:45;6.15;;;1.50;;
65755;SDS011;69208;47.502;18.940;2023-07-13T02:10:48;4.22;;;1.62;;
65755;SDS011;69208;47.502;18.940;2023-07-13T02:11:51;5.85;;;1.80;;
65755;SDS011;69208;47.502;18.940;2023-07-13T02:12:54;3.97;;;1.65;;
65755;SDS011;69208;47.502;18.940;2023-07-13T02:13:56;3.62;;;1.60;;
65755;SDS011;69208;47.502;18.940;2023-07-13T02:14:59;3.95;;;1.45;;
65755;SDS011;69208;47.502;18.940;2023-07-13T02:16:02;4.03;;;1.58;;
65755;SDS011;69208;47.502;18.940;2023-07-13T02:17:06;3.15;;;1.50;;
65755;SDS011;69208;47.502;18.940;2023-07-13T02:18:09;3.08;;;1.60;;
65755;SDS011;69208;47.502;18.940;2023-07-13T02:19:12;5.00;;;1.20;;
65755;SDS011;69208;47.502;18.940;2023-07-13T02:20:15;3.15;;;1.62;;
65755;SDS011;69208;47.502;18.940;2023-07-13T02:21:18;2.37;;;1.52;;
65755;SDS011;69208;47.502;18.940;2023-07-13T02:22:21;4.82;;;1.60;;
65755;SDS011;69208;47.502;18.940;2023-07-13T02:23:24;2.40;;;1.60;;
65755;SDS011;69208;47.502;18.940;2023-07-13T02:24:28;1.62;;;1.48;;
65755;SDS011;69208;47.502;18.940;2023-07-13T02:25:31;2.70;;;1.42;;
65755;SDS011;69208;47.502;18.940;2023-07-13T02:26:34;2.72;;;1.60;;
65755;SDS011;69208;47.502;18.940;2023-07-13T02:27:37;6.85;;;1.50;;
65755;SDS011;69208;47.502;18.940;2023-07-13T02:28:40;3.87;;;1.55;;
65755;SDS011;69208;47.502;18.940;2023-07-13T02:29:43;4.47;;;1.60;;
65755;SDS011;69208;47.502;18.940;2023-07-13T02:30:46;2.53;;;1.55;;
65755;SDS011;69208;47.502;18.940;2023-07-13T02:31:49;3.40;;;1.42;;
65755;SDS011;69208;47.502;18.940;2023-07-13T02:32:51;2.92;;;1.30;;
65755;SDS011;69208;47.502;18.940;2023-07-13T02:33:54;2.42;;;1.40;;
65755;SDS011;69208;47.502;18.940;2023-07-13T02:34:57;2.17;;;1.40;;
65755;SDS011;69208;47.502;18.940;2023-07-13T02:36:00;3.50;;;1.55;;
65755;SDS011;69208;47.502;18.940;2023-07-13T02:37:03;2.40;;;1.50;;
65755;SDS011;69208;47.502;18.940;2023-07-13T02:38:07;2.37;;;1.40;;
65755;SDS011;69208;47.502;18.940;2023-07-13T02:39:11;2.90;;;1.50;;
65755;SDS011;69208;47.502;18.940;2023-07-13T02:40:14;4.25;;;1.50;;
65755;SDS011;69208;47.502;18.940;2023-07-13T02:41:17;3.85;;;1.30;;
65755;SDS011;69208;47.502;18.940;2023-07-13T02:42:20;3.60;;;1.55;;
65755;SDS011;69208;47.502;18.940;2023-07-13T02:43:23;3.75;;;1.42;;
65755;SDS011;69208;47.502;18.940;2023-07-13T02:44:26;3.75;;;1.50;;
65755;SDS011;69208;47.502;18.940;2023-07-13T02:45:29;5.90;;;1.70;;
65755;SDS011;69208;47.502;18.940;2023-07-13T02:46:33;2.17;;;1.33;;
65755;SDS011;69208;47.502;18.940;2023-07-13T02:47:37;3.95;;;1.40;;
65755;SDS011;69208;47.502;18.940;2023-07-13T02:48:43;3.72;;;1.55;;
65755;SDS011;69208;47.502;18.940;2023-07-13T02:49:46;3.50;;;1.50;;
65755;SDS011;69208;47.502;18.940;2023-07-13T02:50:49;3.65;;;1.50;;
65755;SDS011;69208;47.502;18.940;2023-07-13T02:51:52;1.92;;;1.30;;
65755;SDS011;69208;47.502;18.940;2023-07-13T02:52:55;1.70;;;1.40;;
65755;SDS011;69208;47.502;18.940;2023-07-13T02:53:58;1.58;;;1.30;;
65755;SDS011;69208;47.502;18.940;2023-07-13T02:55:01;2.47;;;1.30;;
65755;SDS011;69208;47.502;18.940;2023-07-13T02:56:04;3.97;;;1.48;;
65755;SDS011;69208;47.502;18.940;2023-07-13T02:57:08;4.57;;;1.60;;
65755;SDS011;69208;47.502;18.940;2023-07-13T02:58:10;3.08;;;1.37;;
65755;SDS011;69208;47.502;18.940;2023-07-13T02:59:13;2.80;;;1.58;;
65755;SDS011;69208;47.502;18.940;2023-07-13T03:00:16;2.42;;;1.35;;
65755;SDS011;69208;47.502;18.940;2023-07-13T03:01:19;2.83;;;1.55;;
65755;SDS011;69208;47.502;18.940;2023-07-13T03:02:24;3.35;;;1.60;;
65755;SDS011;69208;47.502;18.940;2023-07-13T03:03:27;2.72;;;1.60;;
65755;SDS011;69208;47.502;18.940;2023-07-13T03:04:30;1.73;;;1.27;;
65755;SDS011;69208;47.502;18.940;2023-07-13T03:05:33;7.57;;;1.60;;
65755;SDS011;69208;47.502;18.940;2023-07-13T03:06:36;2.08;;;1.40;;
65755;SDS011;69208;47.502;18.940;2023-07-13T03:07:39;2.33;;;1.52;;
65755;SDS011;69208;47.502;18.940;2023-07-13T03:08:42;3.92;;;1.80;;
65755;SDS011;69208;47.502;18.940;2023-07-13T03:09:46;6.37;;;2.40;;
65755;SDS011;69208;47.502;18.940;2023-07-13T03:10:49;17.37;;;2.80;;
65755;SDS011;69208;47.502;18.940;2023-07-13T03:12:05;5.37;;;2.05;;
65755;SDS011;69208;47.502;18.940;2023-07-13T03:13:09;6.55;;;2.33;;
65755;SDS011;69208;47.502;18.940;2023-07-13T03:14:12;5.18;;;2.00;;
65755;SDS011;69208;47.502;18.940;2023-07-13T03:15:14;3.33;;;1.50;;
65755;SDS011;69208;47.502;18.940;2023-07-13T03:16:18;3.12;;;1.62;;
65755;SDS011;69208;47.502;18.940;2023-07-13T03:17:21;2.53;;;1.50;;
65755;SDS011;69208;47.502;18.940;2023-07-13T03:18:26;2.58;;;1.62;;
65755;SDS011;69208;47.502;18.940;2023-07-13T03:19:29;1.83;;;1.58;;
65755;SDS011;69208;47.502;18.940;2023-07-13T03:20:33;5.90;;;2.10;;
65755;SDS011;69208;47.502;18.940;2023-07-13T03:21:36;2.55;;;1.73;;
65755;SDS011;69208;47.502;18.940;2023-07-13T03:22:39;3.85;;;1.92;;
65755;SDS011;69208;47.502;18.940;2023-07-13T03:23:42;4.28;;;1.87;;
65755;SDS011;69208;47.502;18.940;2023-07-13T03:24:45;4.37;;;2.08;;
65755;SDS011;69208;47.502;18.940;2023-07-13T03:25:48;10.32;;;2.35;;
65755;SDS011;69208;47.502;18.940;2023-07-13T03:26:52;3.22;;;2.05;;
65755;SDS011;69208;47.502;18.940;2023-07-13T03:27:55;6.47;;;1.90;;
65755;SDS011;69208;47.502;18.940;2023-07-13T03:28:58;6.25;;;2.25;;
65755;SDS011;69208;47.502;18.940;2023-07-13T03:30:01;3.28;;;1.98;;
65755;SDS011;69208;47.502;18.940;2023-07-13T03:31:08;4.10;;;2.22;;
65755;SDS011;69208;47.502;18.940;2023-07-13T03:32:14;3.58;;;2.10;;
65755;SDS011;69208;47.502;18.940;2023-07-13T03:33:17;4.78;;;2.45;;
65755;SDS011;69208;47.502;18.940;2023-07-13T03:34:20;5.68;;;2.45;;
65755;SDS011;69208;47.502;18.940;2023-07-13T03:35:23;2.97;;;2.10;;
65755;SDS011;69208;47.502;18.940;2023-07-13T03:36:27;3.90;;;2.28;;
65755;SDS011;69208;47.502;18.940;2023-07-13T03:37:31;3.90;;;2.10;;
65755;SDS011;69208;47.502;18.940;2023-07-13T03:38:34;6.82;;;2.30;;
65755;SDS011;69208;47.502;18.940;2023-07-13T03:39:36;4.00;;;2.20;;
65755;SDS011;69208;47.502;18.940;2023-07-13T03:40:39;2.28;;;1.70;;
65755;SDS011;69208;47.502;18.940;2023-07-13T03:41:42;3.75;;;1.85;;
65755;SDS011;69208;47.502;18.940;2023-07-13T03:42:45;4.12;;;2.22;;
65755;SDS011;69208;47.502;18.940;2023-07-13T03:43:48;3.90;;;2.25;;
65755;SDS011;69208;47.502;18.940;2023-07-13T03:44:51;2.72;;;2.10;;
65755;SDS011;69208;47.502;18.940;2023-07-13T03:45:55;3.95;;;2.17;;
65755;SDS011;69208;47.502;18.940;2023-07-13T03:46:57;5.57;;;2.40;;
65755;SDS011;69208;47.502;18.940;2023-07-13T03:48:00;2.97;;;2.30;;
65755;SDS011;69208;47.502;18.940;2023-07-13T03:49:04;3.67;;;2.33;;
65755;SDS011;69208;47.502;18.940;2023-07-13T03:50:07;4.00;;;2.10;;
65755;SDS011;69208;47.502;18.940;2023-07-13T03:51:12;4.32;;;2.30;;
65755;SDS011;69208;47.502;18.940;2023-07-13T03:52:16;3.60;;;2.10;;
65755;SDS011;69208;47.502;18.940;2023-07-13T03:53:19;5.35;;;2.10;;
65755;SDS011;69208;47.502;18.940;2023-07-13T03:54:22;3.95;;;2.22;;
65755;SDS011;69208;47.502;18.940;2023-07-13T03:55:24;3.97;;;2.28;;
65755;SDS011;69208;47.502;18.940;2023-07-13T03:56:28;5.37;;;2.15;;
65755;SDS011;69208;47.502;18.940;2023-07-13T03:57:32;4.07;;;2.10;;
65755;SDS011;69208;47.502;18.940;2023-07-13T03:58:41;4.62;;;2.00;;
65755;SDS011;69208;47.502;18.940;2023-07-13T03:59:45;4.12;;;2.30;;
65755;SDS011;69208;47.502;18.940;2023-07-13T04:00:48;4.03;;;1.87;;
65755;SDS011;69208;47.502;18.940;2023-07-13T04:01:50;4.87;;;2.33;;
65755;SDS011;69208;47.502;18.940;2023-07-13T04:02:53;3.17;;;2.00;;
65755;SDS011;69208;47.502;18.940;2023-07-13T04:03:56;4.57;;;1.90;;
65755;SDS011;69208;47.502;18.940;2023-07-13T04:05:01;3.17;;;2.03;;
65755;SDS011;69208;47.502;18.940;2023-07-13T04:06:04;5.80;;;2.10;;
65755;SDS011;69208;47.502;18.940;2023-07-13T04:07:09;4.60;;;2.08;;
65755;SDS011;69208;47.502;18.940;2023-07-13T04:08:12;3.35;;;2.10;;
65755;SDS011;69208;47.502;18.940;2023-07-13T04:09:15;3.50;;;2.22;;
65755;SDS011;69208;47.502;18.940;2023-07-13T04:10:18;3.78;;;2.12;;
65755;SDS011;69208;47.502;18.940;2023-07-13T04:11:22;3.10;;;2.00;;
65755;SDS011;69208;47.502;18.940;2023-07-13T04:12:26;3.70;;;2.17;;
65755;SDS011;69208;47.502;18.940;2023-07-13T04:13:32;3.55;;;2.40;;
65755;SDS011;69208;47.502;18.940;2023-07-13T04:14:35;5.78;;;2.15;;
65755;SDS011;69208;47.502;18.940;2023-07-13T04:15:40;3.65;;;2.05;;
65755;SDS011;69208;47.502;18.940;2023-07-13T04:16:43;5.40;;;2.47;;
65755;SDS011;69208;47.502;18.940;2023-07-13T04:17:46;3.87;;;2.28;;
65755;SDS011;69208;47.502;18.940;2023-07-13T04:18:49;4.75;;;2.50;;
65755;SDS011;69208;47.502;18.940;2023-07-13T04:19:52;7.43;;;2.20;;
65755;SDS011;69208;47.502;18.940;2023-07-13T04:20:55;4.07;;;2.55;;
65755;SDS011;69208;47.502;18.940;2023-07-13T04:21:58;4.93;;;2.30;;
65755;SDS011;69208;47.502;18.940;2023-07-13T04:23:01;5.53;;;2.30;;
65755;SDS011;69208;47.502;18.940;2023-07-13T04:24:03;5.80;;;2.22;;
65755;SDS011;69208;47.502;18.940;2023-07-13T04:25:06;6.43;;;2.20;;
65755;SDS011;69208;47.502;18.940;2023-07-13T04:26:09;6.80;;;2.20;;
65755;SDS011;69208;47.502;18.940;2023-07-13T04:27:13;3.90;;;2.00;;
65755;SDS011;69208;47.502;18.940;2023-07-13T04:28:16;2.67;;;2.10;;
65755;SDS011;69208;47.502;18.940;2023-07-13T04:29:20;4.35;;;2.00;;
65755;SDS011;69208;47.502;18.940;2023-07-13T04:30:22;3.40;;;1.92;;
65755;SDS011;69208;47.502;18.940;2023-07-13T04:31:26;4.28;;;2.10;;
65755;SDS011;69208;47.502;18.940;2023-07-13T04:32:28;3.87;;;2.47;;
65755;SDS011;69208;47.502;18.940;2023-07-13T04:33:31;3.25;;;2.20;;
65755;SDS011;69208;47.502;18.940;2023-07-13T04:34:34;3.92;;;2.10;;
65755;SDS011;69208;47.502;18.940;2023-07-13T04:35:37;5.45;;;2.05;;
65755;SDS011;69208;47.502;18.940;2023-07-13T04:36:39;5.97;;;2.20;;
65755;SDS011;69208;47.502;18.940;2023-07-13T04:37:42;3.05;;;2.20;;
65755;SDS011;69208;47.502;18.940;2023-07-13T04:38:45;4.05;;;2.15;;
65755;SDS011;69208;47.502;18.940;2023-07-13T04:39:47;4.53;;;2.50;;
65755;SDS011;69208;47.502;18.940;2023-07-13T04:40:50;3.22;;;2.05;;
65755;SDS011;69208;47.502;18.940;2023-07-13T04:41:53;4.60;;;2.08;;
65755;SDS011;69208;47.502;18.940;2023-07-13T04:42:58;5.03;;;1.90;;
65755;SDS011;69208;47.502;18.940;2023-07-13T04:44:00;7.12;;;2.20;;
65755;SDS011;69208;47.502;18.940;2023-07-13T04:45:08;2.87;;;2.05;;
65755;SDS011;69208;47.502;18.940;2023-07-13T04:46:11;4.10;;;2.62;;
65755;SDS011;69208;47.502;18.940;2023-07-13T04:47:17;5.20;;;2.70;;
65755;SDS011;69208;47.502;18.940;2023-07-13T04:48:20;7.35;;;2.83;;
65755;SDS011;69208;47.502;18.940;2023-07-13T04:49:24;5.12;;;2.90;;
65755;SDS011;69208;47.502;18.940;2023-07-13T04:50:26;8.23;;;3.45;;
65755;SDS011;69208;47.502;18.940;2023-07-13T04:51:29;7.50;;;3.67;;
65755;SDS011;69208;47.502;18.940;2023-07-13T04:52:32;6.30;;;3.42;;
65755;SDS011;69208;47.502;18.940;2023-07-13T04:53:35;7.82;;;4.05;;
65755;SDS011;69208;47.502;18.940;2023-07-13T04:54:38;7.93;;;3.60;;
65755;SDS011;69208;47.502;18.940;2023-07-13T04:55:41;6.18;;;3.42;;
65755;SDS011;69208;47.502;18.940;2023-07-13T04:56:44;8.57;;;3.83;;
65755;SDS011;69208;47.502;18.940;2023-07-13T04:57:47;9.85;;;4.68;;
65755;SDS011;69208;47.502;18.940;2023-07-13T04:58:50;13.07;;;4.37;;
65755;SDS011;69208;47.502;18.940;2023-07-13T04:59:52;9.95;;;4.47;;
65755;SDS011;69208;47.502;18.940;2023-07-13T05:01:03;9.35;;;4.30;;
65755;SDS011;69208;47.502;18.940;2023-07-13T05:02:07;5.85;;;3.58;;
65755;SDS011;69208;47.502;18.940;2023-07-13T05:03:10;9.93;;;3.53;;
65755;SDS011;69208;47.502;18.940;2023-07-13T05:04:13;7.80;;;3.80;;
65755;SDS011;69208;47.502;18.940;2023-07-13T05:05:15;8.32;;;3.60;;
65755;SDS011;69208;47.502;18.940;2023-07-13T05:06:18;8.07;;;3.47;;
65755;SDS011;69208;47.502;18.940;2023-07-13T05:07:21;7.07;;;3.75;;
65755;SDS011;69208;47.502;18.940;2023-07-13T05:08:24;7.97;;;3.90;;
65755;SDS011;69208;47.502;18.940;2023-07-13T05:09:27;9.15;;;3.65;;
65755;SDS011;69208;47.502;18.940;2023-07-13T05:10:30;7.87;;;4.03;;
65755;SDS011;69208;47.502;18.940;2023-07-13T05:11:33;13.23;;;3.70;;
65755;SDS011;69208;47.502;18.940;2023-07-13T05:12:35;11.25;;;4.00;;
65755;SDS011;69208;47.502;18.940;2023-07-13T05:13:38;11.12;;;4.05;;
65755;SDS011;69208;47.502;18.940;2023-07-13T05:14:41;8.88;;;4.60;;
65755;SDS011;69208;47.502;18.940;2023-07-13T05:15:44;7.65;;;4.28;;
65755;SDS011;69208;47.502;18.940;2023-07-13T05:16:47;6.72;;;4.00;;
65755;SDS011;69208;47.502;18.940;2023-07-13T05:17:50;10.82;;;5.00;;
65755;SDS011;69208;47.502;18.940;2023-07-13T05:18:53;6.62;;;4.25;;
65755;SDS011;69208;47.502;18.940;2023-07-13T05:19:56;7.90;;;4.57;;
65755;SDS011;69208;47.502;18.940;2023-07-13T05:21:03;12.60;;;4.15;;
65755;SDS011;69208;47.502;18.940;2023-07-13T05:22:08;7.68;;;4.72;;
65755;SDS011;69208;47.502;18.940;2023-07-13T05:23:11;7.50;;;4.37;;
65755;SDS011;69208;47.502;18.940;2023-07-13T05:24:13;6.47;;;4.10;;
65755;SDS011;69208;47.502;18.940;2023-07-13T05:25:27;11.25;;;4.22;;
65755;SDS011;69208;47.502;18.940;2023-07-13T05:26:29;7.32;;;4.10;;
65755;SDS011;69208;47.502;18.940;2023-07-13T05:27:32;6.05;;;3.20;;
65755;SDS011;69208;47.502;18.940;2023-07-13T05:28:36;6.82;;;3.70;;
65755;SDS011;69208;47.502;18.940;2023-07-13T05:29:40;6.37;;;3.40;;
65755;SDS011;69208;47.502;18.940;2023-07-13T05:30:46;5.78;;;3.42;;
65755;SDS011;69208;47.502;18.940;2023-07-13T05:31:50;5.80;;;3.12;;
65755;SDS011;69208;47.502;18.940;2023-07-13T05:32:53;7.35;;;3.60;;
65755;SDS011;69208;47.502;18.940;2023-07-13T05:33:56;6.35;;;3.30;;
65755;SDS011;69208;47.502;18.940;2023-07-13T05:34:58;5.78;;;3.50;;
65755;SDS011;69208;47.502;18.940;2023-07-13T05:36:01;5.37;;;3.20;;
65755;SDS011;69208;47.502;18.940;2023-07-13T05:37:04;5.95;;;3.30;;
65755;SDS011;69208;47.502;18.940;2023-07-13T05:38:07;7.28;;;3.15;;
65755;SDS011;69208;47.502;18.940;2023-07-13T05:39:09;5.45;;;3.20;;
65755;SDS011;69208;47.502;18.940;2023-07-13T05:40:13;4.87;;;3.10;;
65755;SDS011;69208;47.502;18.940;2023-07-13T05:41:16;10.00;;;3.10;;
65755;SDS011;69208;47.502;18.940;2023-07-13T05:42:19;4.25;;;2.60;;
65755;SDS011;69208;47.502;18.940;2023-07-13T05:43:22;5.53;;;3.10;;
65755;SDS011;69208;47.502;18.940;2023-07-13T05:44:25;4.47;;;2.80;;
65755;SDS011;69208;47.502;18.940;2023-07-13T05:45:27;4.72;;;2.87;;
65755;SDS011;69208;47.502;18.940;2023-07-13T05:46:30;9.38;;;2.90;;
65755;SDS011;69208;47.502;18.940;2023-07-13T05:47:34;5.18;;;2.78;;
65755;SDS011;69208;47.502;18.940;2023-07-13T05:48:36;12.43;;;3.20;;
65755;SDS011;69208;47.502;18.940;2023-07-13T05:49:40;7.12;;;2.92;;
65755;SDS011;69208;47.502;18.940;2023-07-13T05:50:43;4.25;;;2.62;;
65755;SDS011;69208;47.502;18.940;2023-07-13T05:51:45;6.10;;;2.87;;
65755;SDS011;69208;47.502;18.940;2023-07-13T05:52:48;6.07;;;2.78;;
65755;SDS011;69208;47.502;18.940;2023-07-13T05:53:51;5.62;;;2.62;;
65755;SDS011;69208;47.502;18.940;2023-07-13T05:54:53;7.00;;;2.60;;
65755;SDS011;69208;47.502;18.940;2023-07-13T05:55:56;4.43;;;2.53;;
65755;SDS011;69208;47.502;18.940;2023-07-13T05:57:02;4.30;;;2.60;;
65755;SDS011;69208;47.502;18.940;2023-07-13T05:58:04;5.10;;;2.42;;
65755;SDS011;69208;47.502;18.940;2023-07-13T05:59:07;5.93;;;2.55;;
65755;SDS011;69208;47.502;18.940;2023-07-13T06:00:10;6.28;;;2.50;;
65755;SDS011;69208;47.502;18.940;2023-07-13T06:01:14;5.87;;;2.30;;
65755;SDS011;69208;47.502;18.940;2023-07-13T06:02:18;5.70;;;2.40;;
65755;SDS011;69208;47.502;18.940;2023-07-13T06:03:21;5.53;;;2.50;;
65755;SDS011;69208;47.502;18.940;2023-07-13T06:04:24;4.53;;;2.50;;
65755;SDS011;69208;47.502;18.940;2023-07-13T06:05:26;5.55;;;2.17;;
65755;SDS011;69208;47.502;18.940;2023-07-13T06:06:31;3.15;;;2.28;;
65755;SDS011;69208;47.502;18.940;2023-07-13T06:07:34;4.55;;;2.30;;
65755;SDS011;69208;47.502;18.940;2023-07-13T06:08:36;4.55;;;2.25;;
65755;SDS011;69208;47.502;18.940;2023-07-13T06:09:39;4.60;;;2.12;;
65755;SDS011;69208;47.502;18.940;2023-07-13T06:10:42;5.53;;;2.40;;
65755;SDS011;69208;47.502;18.940;2023-07-13T06:11:45;11.35;;;3.08;;
65755;SDS011;69208;47.502;18.940;2023-07-13T06:12:48;5.43;;;2.22;;
65755;SDS011;69208;47.502;18.940;2023-07-13T06:13:51;6.75;;;2.30;;
65755;SDS011;69208;47.502;18.940;2023-07-13T06:14:54;4.37;;;1.95;;
65755;SDS011;69208;47.502;18.940;2023-07-13T06:15:56;6.57;;;2.10;;
65755;SDS011;69208;47.502;18.940;2023-07-13T06:16:59;6.12;;;2.12;;
65755;SDS011;69208;47.502;18.940;2023-07-13T06:18:02;3.65;;;2.03;;
65755;SDS011;69208;47.502;18.940;2023-07-13T06:19:05;3.30;;;1.90;;
65755;SDS011;69208;47.502;18.940;2023-07-13T06:20:08;3.97;;;2.20;;